createdAt,value
2017-06-03T00:00:54.511Z,13.29
2017-06-03T00:01:54.495Z,13.22
2017-06-03T00:02:54.489Z,13.25
2017-06-03T00:03:54.482Z,13.23
2017-06-03T00:04:54.485Z,13.23
2017-06-03T00:05:54.475Z,13.25
2017-06-03T00:06:54.477Z,13.2
2017-06-03T00:07:54.463Z,13.19
2017-06-03T00:08:54.457Z,13.22
2017-06-03T00:09:54.460Z,13.15
2017-06-03T00:10:54.447Z,13.22
2017-06-03T00:11:54.441Z,13.2
2017-06-03T00:12:54.435Z,13.25
2017-06-03T00:13:54.433Z,13.15
2017-06-03T00:14:54.124Z,13.14
2017-06-03T00:15:54.419Z,13.11
2017-06-03T00:16:54.433Z,13.14
2017-06-03T00:17:54.409Z,13.2
2017-06-03T00:18:54.403Z,13.22
2017-06-03T00:19:54.396Z,13.28
2017-06-03T00:20:54.395Z,13.15
2017-06-03T00:21:54.389Z,13.22
2017-06-03T00:22:54.387Z,13.2
2017-06-03T00:23:54.377Z,13.23
2017-06-03T00:24:54.372Z,13.15
2017-06-03T00:25:54.367Z,13.12
2017-06-03T00:26:54.360Z,13.15
2017-06-03T00:27:54.354Z,13.14
2017-06-03T00:28:54.048Z,13.14
2017-06-03T00:29:54.383Z,13.15
2017-06-03T00:30:54.341Z,13.12
2017-06-03T00:31:54.334Z,13.1
2017-06-03T00:32:54.327Z,13.05
2017-06-03T00:33:54.320Z,12.97
2017-06-03T00:34:54.318Z,13.04
2017-06-03T00:35:54.008Z,13.05
2017-06-03T00:36:54.304Z,13.04
2017-06-03T00:37:54.301Z,13.01
2017-06-03T00:38:54.296Z,12.92
2017-06-03T00:39:54.291Z,12.93
2017-06-03T00:40:54.287Z,12.87
2017-06-03T00:41:54.281Z,12.96
2017-06-03T00:42:54.272Z,12.93
2017-06-03T00:43:54.268Z,12.86
2017-06-03T00:44:54.265Z,12.86
2017-06-03T00:45:54.255Z,12.83
2017-06-03T00:46:54.250Z,12.82
2017-06-03T00:47:54.257Z,12.87
2017-06-03T00:48:54.240Z,12.77
2017-06-03T00:49:54.236Z,12.79
2017-06-03T00:50:54.229Z,12.83
2017-06-03T00:51:54.224Z,12.85
2017-06-03T00:52:54.217Z,12.79
2017-06-03T00:53:53.908Z,12.9
2017-06-03T00:54:53.906Z,12.87
2017-06-03T00:55:54.220Z,12.9
2017-06-03T00:56:54.199Z,12.92
2017-06-03T00:57:54.191Z,12.9
2017-06-03T00:58:54.185Z,12.83
2017-06-03T00:59:54.176Z,12.83
2017-06-03T01:00:54.172Z,12.75
2017-06-03T01:01:53.864Z,12.71
2017-06-03T01:02:54.160Z,12.74
2017-06-03T01:03:54.153Z,12.7
2017-06-03T01:04:54.149Z,12.72
2017-06-03T01:05:54.145Z,12.7
2017-06-03T01:06:54.140Z,12.72
2017-06-03T01:07:54.130Z,12.64
2017-06-03T01:08:53.823Z,12.64
2017-06-03T01:09:54.121Z,12.65
2017-06-03T01:10:54.120Z,12.64
2017-06-03T01:11:54.107Z,12.59
2017-06-03T01:12:54.109Z,12.52
2017-06-03T01:13:54.095Z,12.56
2017-06-03T01:14:54.093Z,12.49
2017-06-03T01:15:54.085Z,12.47
2017-06-03T01:16:54.078Z,12.42
2017-06-03T01:17:54.073Z,12.47
2017-06-03T01:18:54.068Z,12.47
2017-06-03T01:19:54.059Z,12.54
2017-06-03T01:20:54.057Z,12.46
2017-06-03T01:21:54.050Z,12.49
2017-06-03T01:22:53.742Z,12.53
2017-06-03T01:23:53.736Z,12.53
2017-06-03T01:24:54.035Z,12.53
2017-06-03T01:25:54.027Z,12.45
2017-06-03T01:26:54.020Z,12.47
2017-06-03T01:27:54.027Z,12.46
2017-06-03T01:28:54.011Z,12.47
2017-06-03T01:29:54.008Z,12.46
2017-06-03T01:30:53.994Z,12.41
2017-06-03T01:31:54.266Z,12.39
2017-06-03T01:32:53.983Z,12.52
2017-06-03T01:33:53.980Z,12.41
2017-06-03T01:34:53.972Z,12.35
2017-06-03T01:35:53.664Z,12.46
2017-06-03T01:36:53.961Z,12.37
2017-06-03T01:37:53.955Z,12.45
2017-06-03T01:38:53.645Z,12.37
2017-06-03T01:39:53.944Z,12.38
2017-06-03T01:40:53.633Z,12.31
2017-06-03T01:41:53.928Z,12.34
2017-06-03T01:42:53.620Z,12.28
2017-06-03T01:43:53.615Z,12.2
2017-06-03T01:44:53.914Z,12.14
2017-06-03T01:45:53.603Z,12.19
2017-06-03T01:46:53.599Z,12.27
2017-06-03T01:47:53.589Z,12.24
2017-06-03T01:48:53.889Z,12.2
2017-06-03T01:49:53.579Z,12.16
2017-06-03T01:50:53.580Z,12.2
2017-06-03T01:51:53.568Z,12.23
2017-06-03T01:52:53.861Z,12.2
2017-06-03T01:53:53.555Z,12.19
2017-06-03T01:54:53.855Z,12.28
2017-06-03T01:55:53.846Z,12.21
2017-06-03T01:56:53.541Z,12.2
2017-06-03T01:57:53.535Z,12.23
2017-06-03T01:58:53.854Z,12.29
2017-06-03T01:59:53.821Z,12.2
2017-06-03T02:00:53.814Z,12.24
2017-06-03T02:01:53.811Z,12.34
2017-06-03T02:02:53.836Z,12.28
2017-06-03T02:03:53.806Z,12.27
2017-06-03T02:04:53.790Z,12.38
2017-06-03T02:05:53.791Z,12.35
2017-06-03T02:06:53.779Z,12.34
2017-06-03T02:07:53.776Z,12.35
2017-06-03T02:08:53.766Z,12.42
2017-06-03T02:09:53.763Z,12.39
2017-06-03T02:10:53.752Z,12.32
2017-06-03T02:11:53.748Z,12.34
2017-06-03T02:12:53.743Z,12.29
2017-06-03T02:13:53.742Z,12.29
2017-06-03T02:14:53.727Z,12.21
2017-06-03T02:15:53.727Z,12.28
2017-06-03T02:16:53.719Z,12.27
2017-06-03T02:17:53.710Z,12.28
2017-06-03T02:18:53.704Z,12.29
2017-06-03T02:19:53.701Z,12.28
2017-06-03T02:20:53.694Z,12.29
2017-06-03T02:21:53.688Z,12.32
2017-06-03T02:22:53.680Z,12.23
2017-06-03T02:23:53.674Z,12.23
2017-06-03T02:24:53.668Z,12.31
2017-06-03T02:25:53.663Z,12.35
2017-06-03T02:26:53.681Z,12.35
2017-06-03T02:27:53.649Z,12.39
2017-06-03T02:28:53.340Z,12.39
2017-06-03T02:29:53.642Z,12.46
2017-06-03T02:30:53.631Z,12.45
2017-06-03T02:31:53.627Z,12.45
2017-06-03T02:32:53.315Z,12.49
2017-06-03T02:33:53.612Z,12.42
2017-06-03T02:34:53.606Z,12.49
2017-06-03T02:35:53.297Z,12.49
2017-06-03T02:36:53.292Z,12.41
2017-06-03T02:37:53.590Z,12.41
2017-06-03T02:38:53.583Z,12.29
2017-06-03T02:39:53.580Z,12.47
2017-06-03T02:40:53.569Z,12.41
2017-06-03T02:41:53.864Z,12.49
2017-06-03T02:42:53.560Z,12.42
2017-06-03T02:43:53.553Z,12.39
2017-06-03T02:44:53.544Z,12.49
2017-06-03T02:45:53.542Z,12.42
2017-06-03T02:46:53.533Z,12.49
2017-06-03T02:47:53.529Z,12.49
2017-06-03T02:48:53.521Z,12.52
2017-06-03T02:49:53.521Z,12.46
2017-06-03T02:50:53.507Z,12.47
2017-06-03T02:51:53.502Z,12.45
2017-06-03T02:52:53.495Z,12.47
2017-06-03T02:53:53.189Z,12.42
2017-06-03T02:54:53.485Z,12.47
2017-06-03T02:55:53.478Z,12.46
2017-06-03T02:56:53.471Z,12.46
2017-06-03T02:57:53.464Z,12.47
2017-06-03T02:58:53.463Z,12.47
2017-06-03T02:59:53.150Z,12.46
2017-06-03T03:00:53.453Z,12.46
2017-06-03T03:01:53.442Z,12.49
2017-06-03T03:02:53.435Z,12.52
2017-06-03T03:03:53.427Z,12.52
2017-06-03T03:04:53.431Z,12.56
2017-06-03T03:05:53.417Z,12.57
2017-06-03T03:06:53.412Z,12.56
2017-06-03T03:07:53.407Z,12.64
2017-06-03T03:08:53.401Z,12.65
2017-06-03T03:09:53.088Z,12.62
2017-06-03T03:10:53.394Z,12.7
2017-06-03T03:11:53.381Z,12.6
2017-06-03T03:12:53.375Z,12.65
2017-06-03T03:13:53.375Z,12.67
2017-06-03T03:14:53.363Z,12.64
2017-06-03T03:15:53.360Z,12.65
2017-06-03T03:16:53.357Z,12.68
2017-06-03T03:17:53.347Z,12.65
2017-06-03T03:18:53.341Z,12.72
2017-06-03T03:19:53.337Z,12.75
2017-06-03T03:20:53.337Z,12.74
2017-06-03T03:21:53.324Z,12.71
2017-06-03T03:22:53.317Z,12.82
2017-06-03T03:23:53.313Z,12.85
2017-06-03T03:24:53.307Z,12.82
2017-06-03T03:25:53.298Z,12.95
2017-06-03T03:26:53.294Z,12.97
2017-06-03T03:27:53.288Z,13.14
2017-06-03T03:28:53.284Z,13.26
2017-06-03T03:29:53.276Z,13.39
2017-06-03T03:30:53.272Z,13.59
2017-06-03T03:31:53.298Z,13.69
2017-06-03T03:32:53.261Z,13.85
2017-06-03T03:33:53.258Z,14.07
2017-06-03T03:34:53.254Z,14.15
2017-06-03T03:35:53.247Z,14.25
2017-06-03T03:36:53.240Z,14.54
2017-06-03T03:37:53.248Z,14.73
2017-06-03T03:38:53.233Z,14.88
2017-06-03T03:39:53.228Z,15.03
2017-06-03T03:40:53.224Z,15.27
2017-06-03T03:41:53.223Z,15.49
2017-06-03T03:42:53.215Z,15.62
2017-06-03T03:43:53.210Z,15.83
2017-06-03T03:44:53.208Z,16.05
2017-06-03T03:45:53.206Z,16.33
2017-06-03T03:46:52.902Z,16.49
2017-06-03T03:47:53.199Z,16.71
2017-06-03T03:48:53.198Z,16.91
2017-06-03T03:49:53.193Z,17.11
2017-06-03T03:50:53.188Z,17.22
2017-06-03T03:51:53.190Z,17.34
2017-06-03T03:52:53.185Z,17.54
2017-06-03T03:53:53.183Z,17.56
2017-06-03T03:54:52.573Z,17.63
2017-06-03T03:55:53.179Z,17.79
2017-06-03T03:56:53.179Z,17.89
2017-06-03T03:57:53.174Z,18
2017-06-03T03:58:53.170Z,18.12
2017-06-03T03:59:53.169Z,18.03
2017-06-03T04:00:53.169Z,18.05
2017-06-03T04:01:53.172Z,18.14
2017-06-03T04:02:53.172Z,18.14
2017-06-03T04:03:52.861Z,18.12
2017-06-03T04:04:53.160Z,18.03
2017-06-03T04:05:52.858Z,18.21
2017-06-03T04:06:52.857Z,18.33
2017-06-03T04:07:52.858Z,18.57
2017-06-03T04:08:52.852Z,18.8
2017-06-03T04:09:52.853Z,19.04
2017-06-03T04:10:52.852Z,19.33
2017-06-03T04:11:52.850Z,19.5
2017-06-03T04:12:53.155Z,19.71
2017-06-03T04:13:52.847Z,19.73
2017-06-03T04:14:53.154Z,19.8
2017-06-03T04:15:53.152Z,19.95
2017-06-03T04:16:53.152Z,20.06
2017-06-03T04:17:53.152Z,20.14
2017-06-03T04:18:52.546Z,20.26
2017-06-03T04:19:53.161Z,20.36
2017-06-03T04:20:53.152Z,20.57
2017-06-03T04:21:53.159Z,20.54
2017-06-03T04:22:53.155Z,20.7
2017-06-03T04:23:52.853Z,20.79
2017-06-03T04:24:52.858Z,21.06
2017-06-03T04:25:53.160Z,21.22
2017-06-03T04:26:53.165Z,21.49
2017-06-03T04:27:53.163Z,21.64
2017-06-03T04:28:53.164Z,21.83
2017-06-03T04:29:53.174Z,21.94
2017-06-03T04:30:52.868Z,22.07
2017-06-03T04:31:53.175Z,22.06
2017-06-03T04:32:53.176Z,22.14
2017-06-03T04:33:53.178Z,22.31
2017-06-03T04:34:52.877Z,22.37
2017-06-03T04:35:53.187Z,22.47
2017-06-03T04:36:53.186Z,22.6
2017-06-03T04:37:53.190Z,22.7
2017-06-03T04:38:53.194Z,22.92
2017-06-03T04:39:52.893Z,23.07
2017-06-03T04:40:52.900Z,23.35
2017-06-03T04:41:53.207Z,23.72
2017-06-03T04:42:53.215Z,23.8
2017-06-03T04:43:52.912Z,24.1
2017-06-03T04:44:53.222Z,24.08
2017-06-03T04:45:53.226Z,24.16
2017-06-03T04:46:53.228Z,24.31
2017-06-03T04:47:53.240Z,24.35
2017-06-03T04:48:53.238Z,24.31
2017-06-03T04:49:53.247Z,24.5
2017-06-03T04:50:53.249Z,24.69
2017-06-03T04:51:52.952Z,24.98
2017-06-03T04:52:53.263Z,24.95
2017-06-03T04:53:53.269Z,24.95
2017-06-03T04:54:53.276Z,25.09
2017-06-03T04:55:53.281Z,25.21
2017-06-03T04:56:53.290Z,25.3
2017-06-03T04:57:53.292Z,25.4
2017-06-03T04:58:52.995Z,25.5
2017-06-03T04:59:53.332Z,25.42
2017-06-03T05:00:53.009Z,25.33
2017-06-03T05:01:53.320Z,25.33
2017-06-03T05:02:53.326Z,25.5
2017-06-03T05:03:53.337Z,25.61
2017-06-03T05:04:53.338Z,25.69
2017-06-03T05:05:53.349Z,25.77
2017-06-03T05:06:53.355Z,25.73
2017-06-03T05:07:53.362Z,25.77
2017-06-03T05:08:53.065Z,25.85
2017-06-03T05:09:53.378Z,25.87
2017-06-03T05:10:53.387Z,25.75
2017-06-03T05:11:53.395Z,25.61
2017-06-03T05:12:53.397Z,25.55
2017-06-03T05:13:53.406Z,25.51
2017-06-03T05:14:53.414Z,25.54
2017-06-03T05:15:53.420Z,25.54
2017-06-03T05:16:53.430Z,25.54
2017-06-03T05:17:53.437Z,25.88
2017-06-03T05:18:53.444Z,25.92
2017-06-03T05:19:53.455Z,26.13
2017-06-03T05:20:53.158Z,26.32
2017-06-03T05:21:53.471Z,26.6
2017-06-03T05:22:53.475Z,26.63
2017-06-03T05:23:53.489Z,26.67
2017-06-03T05:24:53.491Z,26.82
2017-06-03T05:25:53.500Z,26.95
2017-06-03T05:26:53.507Z,27.12
2017-06-03T05:27:53.518Z,27.31
2017-06-03T05:28:53.223Z,27.24
2017-06-03T05:29:53.540Z,27.25
2017-06-03T05:30:53.548Z,27.29
2017-06-03T05:31:53.557Z,27.13
2017-06-03T05:32:53.255Z,26.97
2017-06-03T05:33:53.568Z,26.97
2017-06-03T05:34:53.578Z,27.02
2017-06-03T05:35:53.588Z,27.06
2017-06-03T05:36:53.598Z,27.03
2017-06-03T05:37:53.604Z,27.25
2017-06-03T05:38:53.615Z,27.4
2017-06-03T05:39:53.625Z,27.51
2017-06-03T05:40:53.632Z,27.69
2017-06-03T05:41:53.643Z,27.88
2017-06-03T05:42:53.649Z,28.07
2017-06-03T05:43:53.661Z,28.27
2017-06-03T05:44:53.667Z,28.54
2017-06-03T05:45:53.678Z,28.93
2017-06-03T05:46:53.688Z,29.09
2017-06-03T05:47:53.698Z,29.21
2017-06-03T05:48:53.710Z,29.16
2017-06-03T05:49:53.721Z,29.18
2017-06-03T05:50:53.729Z,29.26
2017-06-03T05:51:53.738Z,29.28
2017-06-03T05:52:53.748Z,29.37
2017-06-03T05:53:53.756Z,29.52
2017-06-03T05:54:53.768Z,29.74
2017-06-03T05:55:53.476Z,29.94
2017-06-03T05:56:53.508Z,29.92
2017-06-03T05:57:53.799Z,30.16
2017-06-03T05:58:53.810Z,30.29
2017-06-03T05:59:53.824Z,30.43
2017-06-03T06:00:53.834Z,30.43
2017-06-03T06:01:53.845Z,30.53
2017-06-03T06:02:53.856Z,30.54
2017-06-03T06:03:53.868Z,30.62
2017-06-03T06:04:53.877Z,30.58
2017-06-03T06:05:53.895Z,30.76
2017-06-03T06:06:53.598Z,30.72
2017-06-03T06:07:53.913Z,30.76
2017-06-03T06:08:53.927Z,30.58
2017-06-03T06:09:53.637Z,30.65
2017-06-03T06:10:53.644Z,30.54
2017-06-03T06:11:53.660Z,30.6
2017-06-03T06:12:53.671Z,30.73
2017-06-03T06:13:53.681Z,30.88
2017-06-03T06:14:53.694Z,30.86
2017-06-03T06:15:54.009Z,30.88
2017-06-03T06:16:54.019Z,30.94
2017-06-03T06:17:53.731Z,31.06
2017-06-03T06:18:53.744Z,31.04
2017-06-03T06:19:54.056Z,31.12
2017-06-03T06:20:53.766Z,31.14
2017-06-03T06:21:53.781Z,31.28
2017-06-03T06:22:53.798Z,31.46
2017-06-03T06:23:54.106Z,31.41
2017-06-03T06:24:54.120Z,31.54
2017-06-03T06:25:53.828Z,31.56
2017-06-03T06:26:53.841Z,31.43
2017-06-03T06:27:53.854Z,31.16
2017-06-03T06:28:53.868Z,31.1
2017-06-03T06:29:54.190Z,30.95
2017-06-03T06:30:53.899Z,30.92
2017-06-03T06:31:54.210Z,30.94
2017-06-03T06:32:54.221Z,30.97
2017-06-03T06:33:54.234Z,30.91
2017-06-03T06:34:53.943Z,30.89
2017-06-03T06:35:54.260Z,30.99
2017-06-03T06:36:53.970Z,31.09
2017-06-03T06:37:54.293Z,31.14
2017-06-03T06:38:54.298Z,31.35
2017-06-03T06:39:54.314Z,31.41
2017-06-03T06:40:54.326Z,31.65
2017-06-03T06:41:54.037Z,31.89
2017-06-03T06:42:54.059Z,31.88
2017-06-03T06:43:54.064Z,32
2017-06-03T06:44:54.379Z,31.93
2017-06-03T06:45:54.393Z,31.68
2017-06-03T06:46:54.409Z,31.36
2017-06-03T06:47:54.122Z,31.21
2017-06-03T06:48:54.138Z,31.13
2017-06-03T06:49:54.449Z,31.17
2017-06-03T06:50:54.467Z,31.17
2017-06-03T06:51:54.477Z,31.19
2017-06-03T06:52:54.492Z,31.34
2017-06-03T06:53:54.503Z,31.54
2017-06-03T06:54:54.521Z,31.66
2017-06-03T06:55:54.533Z,31.68
2017-06-03T06:56:54.545Z,31.75
2017-06-03T06:57:54.259Z,31.73
2017-06-03T06:58:54.574Z,31.86
2017-06-03T06:59:54.587Z,32.1
2017-06-03T07:00:54.604Z,32.21
2017-06-03T07:01:54.616Z,32.37
2017-06-03T07:02:54.637Z,32.41
2017-06-03T07:03:54.644Z,32.4
2017-06-03T07:04:54.658Z,32.51
2017-06-03T07:05:54.069Z,32.55
2017-06-03T07:06:54.689Z,32.51
2017-06-03T07:07:54.703Z,32.55
2017-06-03T07:08:54.717Z,32.55
2017-06-03T07:09:54.732Z,32.52
2017-06-03T07:10:54.746Z,32.41
2017-06-03T07:11:54.761Z,32.06
2017-06-03T07:12:54.776Z,31.81
2017-06-03T07:13:54.789Z,31.66
2017-06-03T07:14:54.804Z,31.48
2017-06-03T07:15:54.819Z,31.43
2017-06-03T07:16:54.829Z,31.44
2017-06-03T07:17:54.846Z,31.41
2017-06-03T07:18:54.853Z,31.54
2017-06-03T07:19:54.867Z,31.53
2017-06-03T07:20:54.883Z,31.66
2017-06-03T07:21:54.897Z,31.58
2017-06-03T07:22:54.908Z,31.46
2017-06-03T07:23:54.922Z,31.36
2017-06-03T07:24:54.939Z,31.09
2017-06-03T07:25:54.950Z,30.98
2017-06-03T07:26:54.960Z,30.95
2017-06-03T07:27:54.970Z,30.75
2017-06-03T07:28:54.983Z,30.75
2017-06-03T07:29:54.996Z,30.75
2017-06-03T07:30:54.704Z,30.64
2017-06-03T07:31:55.019Z,30.47
2017-06-03T07:32:55.038Z,30.42
2017-06-03T07:33:55.044Z,30.24
2017-06-03T07:34:55.052Z,30.27
2017-06-03T07:35:55.065Z,30.13
2017-06-03T07:36:55.077Z,30.1
2017-06-03T07:37:55.343Z,30.02
2017-06-03T07:38:55.100Z,30.05
2017-06-03T07:39:54.805Z,29.97
2017-06-03T07:40:54.816Z,30
2017-06-03T07:41:55.139Z,29.98
2017-06-03T07:42:55.139Z,29.92
2017-06-03T07:43:55.149Z,29.86
2017-06-03T07:44:55.156Z,29.71
2017-06-03T07:45:55.173Z,29.67
2017-06-03T07:46:55.180Z,29.41
2017-06-03T07:47:55.189Z,29.26
2017-06-03T07:48:54.590Z,29.16
2017-06-03T07:49:55.205Z,29.06
2017-06-03T07:50:55.214Z,29.06
2017-06-03T07:51:55.225Z,29.09
2017-06-03T07:52:55.230Z,28.88
2017-06-03T07:53:54.943Z,28.9
2017-06-03T07:54:55.249Z,28.86
2017-06-03T07:55:55.256Z,28.71
2017-06-03T07:56:55.269Z,28.62
2017-06-03T07:57:54.971Z,28.43
2017-06-03T07:58:55.280Z,28.39
2017-06-03T07:59:55.307Z,28.29
2017-06-03T08:00:55.295Z,28.33
2017-06-03T08:01:55.304Z,28.25
2017-06-03T08:02:55.311Z,28.19
2017-06-03T08:03:55.319Z,28.3
2017-06-03T08:04:55.328Z,28.24
2017-06-03T08:05:55.334Z,28.17
2017-06-03T08:06:55.039Z,28.12
2017-06-03T08:07:55.348Z,28.03
2017-06-03T08:08:55.356Z,28.03
2017-06-03T08:09:55.362Z,27.84
2017-06-03T08:10:55.392Z,27.84
2017-06-03T08:11:55.376Z,27.78
2017-06-03T08:12:55.380Z,27.62
2017-06-03T08:13:55.387Z,27.4
2017-06-03T08:14:55.399Z,27.25
2017-06-03T08:15:55.431Z,27.06
2017-06-03T08:16:55.408Z,26.87
2017-06-03T08:17:55.110Z,26.6
2017-06-03T08:18:55.121Z,26.51
2017-06-03T08:19:55.434Z,26.43
2017-06-03T08:20:55.130Z,26.44
2017-06-03T08:21:55.439Z,26.23
2017-06-03T08:22:55.444Z,26.06
2017-06-03T08:23:55.145Z,25.98
2017-06-03T08:24:55.453Z,25.91
2017-06-03T08:25:55.462Z,25.82
2017-06-03T08:26:55.463Z,25.67
2017-06-03T08:27:55.466Z,25.72
2017-06-03T08:28:55.474Z,25.69
2017-06-03T08:29:55.476Z,25.73
2017-06-03T08:30:55.493Z,25.8
2017-06-03T08:31:55.487Z,25.8
2017-06-03T08:32:55.489Z,25.85
2017-06-03T08:33:55.495Z,26.05
2017-06-03T08:34:55.500Z,25.99
2017-06-03T08:35:55.503Z,26.07
2017-06-03T08:36:55.508Z,26.09
2017-06-03T08:37:55.814Z,26.13
2017-06-03T08:38:55.516Z,26.2
2017-06-03T08:39:55.523Z,26.21
2017-06-03T08:40:55.525Z,26.28
2017-06-03T08:41:55.530Z,26.23
2017-06-03T08:42:55.540Z,26.25
2017-06-03T08:43:56.751Z,26.35
2017-06-03T08:44:55.568Z,26.21
2017-06-03T08:45:55.547Z,26.21
2017-06-03T08:46:55.556Z,26.09
2017-06-03T08:47:58.792Z,25.98
2017-06-03T08:50:55.573Z,25.83
2017-06-03T08:51:55.596Z,25.69
2017-06-03T08:52:55.274Z,25.67
2017-06-03T08:53:55.581Z,25.67
2017-06-03T08:54:55.587Z,25.62
2017-06-03T08:55:55.592Z,25.72
2017-06-03T08:56:55.594Z,25.72
2017-06-03T08:57:55.599Z,25.88
2017-06-03T08:58:55.299Z,25.9
2017-06-03T08:59:55.626Z,25.88
2017-06-03T09:00:55.310Z,25.87
2017-06-03T09:01:55.618Z,25.91
2017-06-03T09:02:55.318Z,26.02
2017-06-03T09:03:55.322Z,25.95
2017-06-03T09:04:55.628Z,25.9
2017-06-03T09:05:55.636Z,26.05
2017-06-03T09:06:55.335Z,26.06
2017-06-03T09:07:55.342Z,26.07
2017-06-03T09:08:55.646Z,26.05
2017-06-03T09:09:55.043Z,26.21
2017-06-03T09:10:55.050Z,26.32
2017-06-03T09:11:55.355Z,26.3
2017-06-03T09:12:55.661Z,26.23
2017-06-03T09:13:55.363Z,26.07
2017-06-03T09:14:55.670Z,26.06
2017-06-03T09:15:55.674Z,26.09
2017-06-03T09:16:55.680Z,25.99
2017-06-03T09:17:55.379Z,25.97
2017-06-03T09:18:55.386Z,25.95
2017-06-03T09:19:55.391Z,25.94
2017-06-03T09:20:55.699Z,25.92
2017-06-03T09:21:55.701Z,25.9
2017-06-03T09:22:55.710Z,25.98
2017-06-03T09:23:55.430Z,25.95
2017-06-03T09:24:55.716Z,25.9
2017-06-03T09:25:55.414Z,25.65
2017-06-03T09:26:55.719Z,25.61
2017-06-03T09:27:55.727Z,25.55
2017-06-03T09:28:55.429Z,25.43
2017-06-03T09:29:55.738Z,25.4
2017-06-03T09:30:55.735Z,25.3
2017-06-03T09:31:55.747Z,25.17
2017-06-03T09:32:55.744Z,25.15
2017-06-03T09:33:55.749Z,25.03
2017-06-03T09:34:55.750Z,24.91
2017-06-03T09:35:55.455Z,24.93
2017-06-03T09:36:55.758Z,24.77
2017-06-03T09:37:55.758Z,24.8
2017-06-03T09:38:55.463Z,24.73
2017-06-03T09:39:55.768Z,24.67
2017-06-03T09:40:55.773Z,24.65
2017-06-03T09:41:55.773Z,24.55
2017-06-03T09:42:55.774Z,24.53
2017-06-03T09:43:55.781Z,24.53
2017-06-03T09:44:55.780Z,24.57
2017-06-03T09:45:55.790Z,24.47
2017-06-03T09:46:55.784Z,24.5
2017-06-03T09:47:55.785Z,24.57
2017-06-03T09:48:55.793Z,24.52
2017-06-03T09:49:55.799Z,24.67
2017-06-03T09:50:55.491Z,24.69
2017-06-03T09:51:55.494Z,24.69
2017-06-03T09:52:55.806Z,24.87
2017-06-03T09:53:55.802Z,24.88
2017-06-03T09:54:55.806Z,24.95
2017-06-03T09:55:55.810Z,24.96
2017-06-03T09:56:55.811Z,24.99
2017-06-03T09:57:55.814Z,24.99
2017-06-03T09:58:55.815Z,24.9
2017-06-03T09:59:55.819Z,24.93
2017-06-03T10:00:55.825Z,24.95
2017-06-03T10:01:55.828Z,24.93
2017-06-03T10:02:55.827Z,24.93
2017-06-03T10:03:55.830Z,24.84
2017-06-03T10:04:55.225Z,24.83
2017-06-03T10:05:55.842Z,24.87
2017-06-03T10:06:55.843Z,24.77
2017-06-03T10:07:55.541Z,24.85
2017-06-03T10:08:55.847Z,24.81
2017-06-03T10:09:55.850Z,24.88
2017-06-03T10:10:55.854Z,24.85
2017-06-03T10:11:55.856Z,24.83
2017-06-03T10:12:55.856Z,24.84
2017-06-03T10:13:55.557Z,24.9
2017-06-03T10:14:55.864Z,25.02
2017-06-03T10:15:55.867Z,25.09
2017-06-03T10:16:55.888Z,25.28
2017-06-03T10:17:55.870Z,25.32
2017-06-03T10:18:55.873Z,25.55
2017-06-03T10:19:55.876Z,25.62
2017-06-03T10:20:55.882Z,25.67
2017-06-03T10:21:55.882Z,25.87
2017-06-03T10:22:55.882Z,25.92
2017-06-03T10:23:55.586Z,26.07
2017-06-03T10:24:55.889Z,26.15
2017-06-03T10:25:55.896Z,26.33
2017-06-03T10:26:55.899Z,26.39
2017-06-03T10:27:55.901Z,26.57
2017-06-03T10:28:55.904Z,26.66
2017-06-03T10:29:55.910Z,26.8
2017-06-03T10:30:55.333Z,26.82
2017-06-03T10:31:55.916Z,26.8
2017-06-03T10:32:55.918Z,26.84
2017-06-03T10:33:55.923Z,26.82
2017-06-03T10:34:55.928Z,26.85
2017-06-03T10:35:55.931Z,26.82
2017-06-03T10:36:55.938Z,26.88
2017-06-03T10:37:55.943Z,26.85
2017-06-03T10:38:55.643Z,26.84
2017-06-03T10:39:55.950Z,26.82
2017-06-03T10:40:55.650Z,26.76
2017-06-03T10:41:55.956Z,26.82
2017-06-03T10:42:55.961Z,26.81
2017-06-03T10:43:55.966Z,26.87
2017-06-03T10:44:55.969Z,26.97
2017-06-03T10:45:55.980Z,26.97
2017-06-03T10:46:55.980Z,27.03
2017-06-03T10:47:55.693Z,27.17
2017-06-03T10:48:55.988Z,27.1
2017-06-03T10:49:55.991Z,27.14
2017-06-03T10:50:56.000Z,27.1
2017-06-03T10:51:56.007Z,27.18
2017-06-03T10:52:56.007Z,27.06
2017-06-03T10:53:56.019Z,27.03
2017-06-03T10:54:56.027Z,27.04
2017-06-03T10:55:55.718Z,26.99
2017-06-03T10:56:55.722Z,26.76
2017-06-03T10:57:56.027Z,26.75
2017-06-03T10:58:55.736Z,26.52
2017-06-03T10:59:56.037Z,26.4
2017-06-03T11:00:55.741Z,26.39
2017-06-03T11:01:56.044Z,26.3
2017-06-03T11:02:56.050Z,26.25
2017-06-03T11:03:56.055Z,26.13
2017-06-03T11:04:56.059Z,26.09
2017-06-03T11:05:56.063Z,25.91
2017-06-03T11:06:55.768Z,25.95
2017-06-03T11:07:56.079Z,25.8
2017-06-03T11:08:56.074Z,25.72
2017-06-03T11:09:56.079Z,25.79
2017-06-03T11:10:56.083Z,25.69
2017-06-03T11:11:56.086Z,25.62
2017-06-03T11:12:55.817Z,25.46
2017-06-03T11:13:56.093Z,25.5
2017-06-03T11:14:56.097Z,25.33
2017-06-03T11:15:56.103Z,25.33
2017-06-03T11:16:56.103Z,25.32
2017-06-03T11:17:56.107Z,25.21
2017-06-03T11:18:56.111Z,25.2
2017-06-03T11:19:56.114Z,25.17
2017-06-03T11:20:56.114Z,25.18
2017-06-03T11:21:56.119Z,25.18
2017-06-03T11:22:56.121Z,25.06
2017-06-03T11:23:56.125Z,24.95
2017-06-03T11:24:56.322Z,24.9
2017-06-03T11:25:55.848Z,24.9
2017-06-03T11:26:56.138Z,24.69
2017-06-03T11:27:56.134Z,24.58
2017-06-03T11:28:56.137Z,24.45
2017-06-03T11:29:56.143Z,24.18
2017-06-03T11:30:56.147Z,24.03
2017-06-03T11:31:56.143Z,23.84
2017-06-03T11:32:56.147Z,23.68
2017-06-03T11:33:56.149Z,23.47
2017-06-03T11:34:55.847Z,23.33
2017-06-03T11:35:55.849Z,23.19
2017-06-03T11:36:55.858Z,23.04
2017-06-03T11:37:56.155Z,23.02
2017-06-03T11:38:56.160Z,22.94
2017-06-03T11:39:56.162Z,22.82
2017-06-03T11:40:56.167Z,22.9
2017-06-03T11:41:56.167Z,22.86
2017-06-03T11:42:56.166Z,22.85
2017-06-03T11:43:56.167Z,22.98
2017-06-03T11:44:55.866Z,23.09
2017-06-03T11:45:56.173Z,23.27
2017-06-03T11:46:56.173Z,23.39
2017-06-03T11:47:56.174Z,23.43
2017-06-03T11:48:56.178Z,23.51
2017-06-03T11:49:55.874Z,23.7
2017-06-03T11:50:56.180Z,23.68
2017-06-03T11:51:56.186Z,23.61
2017-06-03T11:52:56.187Z,23.79
2017-06-03T11:53:56.193Z,23.8
2017-06-03T11:54:56.193Z,23.79
2017-06-03T11:55:56.194Z,23.8
2017-06-03T11:56:56.196Z,23.93
2017-06-03T11:57:56.200Z,23.91
2017-06-03T11:58:56.198Z,23.95
2017-06-03T11:59:55.897Z,23.98
2017-06-03T12:00:56.208Z,24.09
2017-06-03T12:01:55.909Z,24.05
2017-06-03T12:02:56.218Z,24.12
2017-06-03T12:03:56.212Z,24.16
2017-06-03T12:04:56.216Z,24.32
2017-06-03T12:05:56.220Z,24.43
2017-06-03T12:06:56.225Z,24.5
2017-06-03T12:07:56.224Z,24.53
2017-06-03T12:08:55.923Z,24.58
2017-06-03T12:09:56.234Z,24.64
2017-06-03T12:10:56.234Z,24.69
2017-06-03T12:11:56.260Z,24.6
2017-06-03T12:12:56.239Z,24.61
2017-06-03T12:13:56.242Z,24.46
2017-06-03T12:14:56.246Z,24.49
2017-06-03T12:15:56.249Z,24.4
2017-06-03T12:16:56.254Z,24.3
2017-06-03T12:17:55.955Z,24.24
2017-06-03T12:18:56.260Z,24.12
2017-06-03T12:19:56.262Z,24.09
2017-06-03T12:20:56.267Z,23.98
2017-06-03T12:21:56.270Z,23.97
2017-06-03T12:22:56.271Z,24.06
2017-06-03T12:23:55.976Z,24.03
2017-06-03T12:24:56.278Z,23.97
2017-06-03T12:25:55.979Z,23.91
2017-06-03T12:26:56.285Z,23.83
2017-06-03T12:27:56.288Z,23.85
2017-06-03T12:28:56.297Z,23.97
2017-06-03T12:29:55.993Z,23.97
2017-06-03T12:30:56.001Z,23.94
2017-06-03T12:31:56.301Z,23.79
2017-06-03T12:32:56.301Z,23.79
2017-06-03T12:33:56.309Z,23.97
2017-06-03T12:34:56.309Z,23.9
2017-06-03T12:35:56.309Z,23.83
2017-06-03T12:36:56.315Z,23.83
2017-06-03T12:37:56.317Z,23.83
2017-06-03T12:38:56.319Z,23.68
2017-06-03T12:39:56.322Z,23.35
2017-06-03T12:40:56.021Z,23.1
2017-06-03T12:41:56.327Z,22.82
2017-06-03T12:42:56.028Z,22.75
2017-06-03T12:43:56.333Z,22.51
2017-06-03T12:44:56.338Z,22.4
2017-06-03T12:45:56.335Z,22.27
2017-06-03T12:46:56.344Z,22.06
2017-06-03T12:47:56.338Z,21.98
2017-06-03T12:48:56.345Z,21.88
2017-06-03T12:49:56.343Z,21.86
2017-06-03T12:50:56.347Z,21.71
2017-06-03T12:51:56.048Z,21.62
2017-06-03T12:52:56.349Z,21.58
2017-06-03T12:53:56.349Z,21.56
2017-06-03T12:54:56.054Z,21.61
2017-06-03T12:55:56.053Z,21.58
2017-06-03T12:56:56.353Z,21.65
2017-06-03T12:57:56.354Z,21.68